createdAt,value
2019-05-26T00:00:15.400Z,100080.00
2019-05-26T00:00:51.573Z,100086.82
2019-05-26T00:01:27.995Z,100079.55
2019-05-26T00:02:04.076Z,100085.05
2019-05-26T00:02:40.595Z,100077.40
2019-05-26T00:03:17.395Z,100073.66
2019-05-26T00:03:52.926Z,100080.09
2019-05-26T00:04:29.543Z,100076.38
2019-05-26T00:05:05.951Z,100081.85
2019-05-26T00:05:41.437Z,100075.62
2019-05-26T00:06:18.029Z,100079.53
2019-05-26T00:06:54.700Z,100080.63
2019-05-26T00:07:31.264Z,100074.56
2019-05-26T00:08:07.448Z,100080.70
2019-05-26T00:08:44.122Z,100076.62
2019-05-26T00:09:21.029Z,100076.80
2019-05-26T00:09:57.639Z,100074.11
2019-05-26T00:10:34.284Z,100077.17
2019-05-26T00:11:10.360Z,100074.11
2019-05-26T00:11:47.250Z,100074.40
2019-05-26T00:12:24.121Z,100069.36
2019-05-26T00:13:00.588Z,100076.17
2019-05-26T00:13:37.757Z,100072.42
2019-05-26T00:14:14.207Z,100073.73
2019-05-26T00:14:49.729Z,100077.00
2019-05-26T00:15:25.979Z,100073.27
2019-05-26T00:16:02.680Z,100072.80
2019-05-26T00:16:38.739Z,100067.59
2019-05-26T00:17:15.495Z,100077.30
2019-05-26T00:17:51.694Z,100072.62
2019-05-26T00:18:28.091Z,100076.59
2019-05-26T00:19:04.412Z,100066.15
2019-05-26T00:19:41.044Z,100078.63
2019-05-26T00:20:16.551Z,100074.81
2019-05-26T00:20:52.745Z,100076.58
2019-05-26T00:21:29.139Z,100073.89
2019-05-26T00:22:05.186Z,100069.22
2019-05-26T00:22:41.245Z,100074.98
2019-05-26T00:23:18.333Z,100074.87
2019-05-26T00:23:56.136Z,100073.50
2019-05-26T00:24:32.202Z,100069.20
2019-05-26T00:25:09.251Z,100066.70
2019-05-26T00:25:45.682Z,100063.99
2019-05-26T00:26:22.161Z,100065.39
2019-05-26T00:26:58.875Z,100066.14
2019-05-26T00:27:35.381Z,100072.20
2019-05-26T00:28:12.011Z,100068.77
2019-05-26T00:28:49.680Z,100067.25
2019-05-26T00:29:26.058Z,100066.23
2019-05-26T00:30:02.130Z,100070.23
2019-05-26T00:30:39.181Z,100070.42
2019-05-26T00:31:14.723Z,100069.67
2019-05-26T00:31:50.983Z,100068.73
2019-05-26T00:32:27.450Z,100077.11
2019-05-26T00:33:02.937Z,100064.82
2019-05-26T00:33:39.643Z,100061.08
2019-05-26T00:34:16.005Z,100068.52
2019-05-26T00:34:52.137Z,100069.34
2019-05-26T00:35:28.473Z,100061.44
2019-05-26T00:36:04.522Z,100066.19
2019-05-26T00:36:41.321Z,100061.36
2019-05-26T00:37:18.880Z,100064.42
2019-05-26T00:37:56.163Z,100059.84
2019-05-26T00:38:32.995Z,100054.91
2019-05-26T00:39:09.379Z,100056.97
2019-05-26T00:39:46.537Z,100060.77
2019-05-26T00:40:22.637Z,100058.54
2019-05-26T00:40:59.296Z,100058.54
2019-05-26T00:41:35.339Z,100059.22
2019-05-26T00:42:11.180Z,100054.71
2019-05-26T00:42:48.178Z,100054.06
2019-05-26T00:43:24.295Z,100056.38
2019-05-26T00:44:00.345Z,100060.58
2019-05-26T00:44:37.396Z,100054.53
2019-05-26T00:45:13.915Z,100063.64
2019-05-26T00:45:50.431Z,100056.30
2019-05-26T00:46:27.525Z,100057.68
2019-05-26T00:47:03.561Z,100057.68
2019-05-26T00:47:40.305Z,100058.81
2019-05-26T00:48:16.895Z,100056.86
2019-05-26T00:48:53.842Z,100060.96
2019-05-26T00:49:29.459Z,100061.42
2019-05-26T00:50:07.682Z,100063.08
2019-05-26T00:50:44.346Z,100062.24
2019-05-26T00:51:20.476Z,100063.08
2019-05-26T00:51:57.155Z,100058.22
2019-05-26T00:52:33.815Z,100060.48
2019-05-26T00:53:09.646Z,100060.02
2019-05-26T00:53:47.329Z,100065.71
2019-05-26T00:54:24.210Z,100058.81
2019-05-26T00:54:59.994Z,100057.68
2019-05-26T00:55:36.095Z,100056.67
2019-05-26T00:56:12.723Z,100055.84
2019-05-26T00:56:48.907Z,100054.71
2019-05-26T00:57:25.118Z,100056.59
2019-05-26T00:58:02.135Z,100048.56
2019-05-26T00:58:38.885Z,100052.09
2019-05-26T00:59:15.724Z,100053.97
2019-05-26T00:59:52.410Z,100052.36
2019-05-26T01:00:42.121Z,100050.22
2019-05-26T01:01:18.364Z,100058.20
2019-05-26T01:01:55.439Z,100054.41
2019-05-26T01:02:31.468Z,100055.25
2019-05-26T01:03:07.537Z,100057.94
2019-05-26T01:03:44.609Z,100048.80
2019-05-26T01:04:20.120Z,100058.86
2019-05-26T01:04:56.843Z,100058.07
2019-05-26T01:05:33.871Z,100059.45
2019-05-26T01:06:10.348Z,100063.95
2019-05-26T01:06:46.989Z,100063.82
2019-05-26T01:07:24.071Z,100062.98
2019-05-26T01:08:06.466Z,100065.96
2019-05-26T01:08:38.087Z,100065.69
2019-05-26T01:09:14.171Z,100070.41
2019-05-26T01:09:50.799Z,100074.23
2019-05-26T01:10:27.883Z,100074.42
2019-05-26T01:11:03.934Z,100072.20
2019-05-26T01:11:39.393Z,100077.87
2019-05-26T01:12:16.213Z,100074.16
2019-05-26T01:12:53.340Z,100076.55
2019-05-26T01:13:29.503Z,100079.09
2019-05-26T01:14:07.118Z,100078.52
2019-05-26T01:14:43.802Z,100085.25
2019-05-26T01:15:20.236Z,100081.97
2019-05-26T01:15:57.272Z,100079.36
2019-05-26T01:16:33.575Z,100079.52
2019-05-26T01:17:09.607Z,100081.20
2019-05-26T01:17:46.058Z,100083.62
2019-05-26T01:18:22.719Z,100084.16
2019-05-26T01:18:58.208Z,100086.33
2019-05-26T01:19:34.644Z,100083.23
2019-05-26T01:20:10.979Z,100084.70
2019-05-26T01:20:47.102Z,100089.55
2019-05-26T01:21:23.826Z,100084.66
2019-05-26T01:22:00.559Z,100080.06
2019-05-26T01:22:36.417Z,100079.22
2019-05-26T01:23:13.049Z,100073.52
2019-05-26T01:23:49.679Z,100082.33
2019-05-26T01:24:25.168Z,100081.19
2019-05-26T01:25:02.156Z,100080.11
2019-05-26T01:25:39.426Z,100074.06
2019-05-26T01:26:16.205Z,100071.84
2019-05-26T01:26:53.059Z,100079.00
2019-05-26T01:27:29.099Z,100078.73
2019-05-26T01:28:05.542Z,100077.70
2019-05-26T01:28:42.144Z,100080.38
2019-05-26T01:29:18.724Z,100078.05
2019-05-26T01:29:54.733Z,100072.76
2019-05-26T01:30:40.479Z,100075.74
2019-05-26T01:31:17.456Z,100078.88
2019-05-26T01:31:53.401Z,100078.58
2019-05-26T01:32:30.063Z,100081.11
2019-05-26T01:33:06.932Z,100080.19
2019-05-26T01:33:42.512Z,100077.20
2019-05-26T01:34:18.737Z,100076.74
2019-05-26T01:34:54.887Z,100082.98
2019-05-26T01:35:31.360Z,100083.94
2019-05-26T01:36:08.474Z,100083.63
2019-05-26T01:36:44.640Z,100076.06
2019-05-26T01:37:20.410Z,100080.11
2019-05-26T01:37:56.676Z,100082.52
2019-05-26T01:38:34.089Z,100084.59
2019-05-26T01:39:09.562Z,100077.13
2019-05-26T01:39:45.666Z,100077.05
2019-05-26T01:40:24.695Z,100080.95
2019-05-26T01:41:00.722Z,100078.05
2019-05-26T01:41:37.684Z,100083.94
2019-05-26T01:42:13.735Z,100080.48
2019-05-26T01:42:49.560Z,100085.59
2019-05-26T01:43:25.729Z,100086.23
2019-05-26T01:44:01.799Z,100084.63
2019-05-26T01:44:37.251Z,100087.77
2019-05-26T01:45:14.073Z,100079.16
2019-05-26T01:45:50.744Z,100084.05
2019-05-26T01:46:26.882Z,100084.59
2019-05-26T01:47:02.954Z,100088.11
2019-05-26T01:47:39.592Z,100087.27
2019-05-26T01:48:15.120Z,100091.10
2019-05-26T01:48:51.773Z,100087.58
2019-05-26T01:49:28.433Z,100086.54
2019-05-26T01:50:04.226Z,100088.80
2019-05-26T01:50:40.875Z,100089.07
2019-05-26T01:51:17.561Z,100086.27
2019-05-26T01:51:54.200Z,100089.56
2019-05-26T01:52:30.380Z,100088.34
2019-05-26T01:53:07.249Z,100087.50
2019-05-26T01:53:43.056Z,100086.66
2019-05-26T01:54:19.784Z,100088.34
2019-05-26T01:54:56.602Z,100088.95
2019-05-26T01:55:32.066Z,100084.59
2019-05-26T01:56:08.226Z,100083.48
2019-05-26T01:56:44.743Z,100080.30
2019-05-26T01:57:20.685Z,100087.20
2019-05-26T01:57:57.356Z,100083.29
2019-05-26T01:58:34.396Z,100080.49
2019-05-26T01:59:10.430Z,100082.64
2019-05-26T01:59:46.488Z,100081.03
2019-05-26T02:00:23.650Z,100077.73
2019-05-26T02:00:59.908Z,100082.11
2019-05-26T02:01:36.270Z,100083.13
2019-05-26T02:02:12.339Z,100076.40
2019-05-26T02:02:48.336Z,100079.84
2019-05-26T02:03:25.658Z,100083.52
2019-05-26T02:04:01.993Z,100077.63
2019-05-26T02:04:38.146Z,100084.52
2019-05-26T02:05:14.751Z,100078.55
2019-05-26T02:05:50.876Z,100084.39
2019-05-26T02:06:26.795Z,100082.83
2019-05-26T02:07:03.417Z,100082.83
2019-05-26T02:07:40.088Z,100084.13
2019-05-26T02:08:16.202Z,100085.27
2019-05-26T02:08:53.103Z,100079.11
2019-05-26T02:09:29.738Z,100084.84
2019-05-26T02:10:06.135Z,100080.18
2019-05-26T02:10:42.818Z,100088.91
2019-05-26T02:11:19.703Z,100086.38
2019-05-26T02:11:55.237Z,100088.78
2019-05-26T02:12:31.615Z,100085.80
2019-05-26T02:13:07.671Z,100085.02
2019-05-26T02:13:43.130Z,100091.00
2019-05-26T02:14:19.907Z,100088.19
2019-05-26T02:14:56.120Z,100087.88
2019-05-26T02:15:32.759Z,100092.25
2019-05-26T02:16:09.131Z,100090.41
2019-05-26T02:16:46.121Z,100091.78
2019-05-26T02:17:21.699Z,100092.70
2019-05-26T02:17:58.699Z,100091.02
2019-05-26T02:18:34.753Z,100092.85
2019-05-26T02:19:10.790Z,100091.66
2019-05-26T02:19:47.620Z,100091.09
2019-05-26T02:20:25.216Z,100092.39
2019-05-26T02:21:01.589Z,100088.67
2019-05-26T02:21:37.648Z,100088.29
2019-05-26T02:22:13.666Z,100086.08
2019-05-26T02:22:49.176Z,100087.52
2019-05-26T02:23:26.097Z,100089.20
2019-05-26T02:24:03.125Z,100086.68
2019-05-26T02:24:39.175Z,100088.05
2019-05-26T02:25:15.889Z,100089.15
2019-05-26T02:25:52.848Z,100083.56
2019-05-26T02:26:28.330Z,100087.01
2019-05-26T02:27:04.954Z,100084.41
2019-05-26T02:27:40.982Z,100086.02
2019-05-26T02:28:16.894Z,100082.96
2019-05-26T02:28:52.963Z,100082.72
2019-05-26T02:29:29.125Z,100081.66
2019-05-26T02:30:05.085Z,100086.16
2019-05-26T02:30:41.715Z,100086.70
2019-05-26T02:31:17.868Z,100089.55
2019-05-26T02:31:53.392Z,100084.35
2019-05-26T02:32:29.425Z,100091.63
2019-05-26T02:33:05.654Z,100083.12
2019-05-26T02:33:41.102Z,100089.09
2019-05-26T02:34:17.692Z,100088.00
2019-05-26T02:34:53.872Z,100090.06
2019-05-26T02:35:29.631Z,100088.45
2019-05-26T02:36:06.285Z,100084.39
2019-05-26T02:36:42.665Z,100087.70
2019-05-26T02:37:18.116Z,100091.95
2019-05-26T02:37:54.341Z,100090.30
2019-05-26T02:38:31.299Z,100088.62
2019-05-26T02:39:08.880Z,100091.05
2019-05-26T02:39:45.037Z,100090.45
2019-05-26T02:40:23.332Z,100090.06
2019-05-26T02:40:59.584Z,100093.05
2019-05-26T02:41:35.874Z,100093.05
2019-05-26T02:42:11.961Z,100095.06
2019-05-26T02:42:47.454Z,100095.45
2019-05-26T02:43:23.876Z,100093.38
2019-05-26T02:43:59.913Z,100095.28
2019-05-26T02:44:35.809Z,100092.02
2019-05-26T02:45:15.259Z,100094.52
2019-05-26T02:45:51.347Z,100091.63
2019-05-26T02:46:27.315Z,100093.00
2019-05-26T02:47:03.375Z,100086.83
2019-05-26T02:47:39.417Z,100090.59
2019-05-26T02:48:14.958Z,100095.08
2019-05-26T02:48:51.740Z,100092.10
2019-05-26T02:49:27.819Z,100091.89
2019-05-26T02:50:03.699Z,100089.05
2019-05-26T02:50:39.772Z,100094.39
2019-05-26T02:51:15.887Z,100088.67
2019-05-26T02:51:51.799Z,100093.48
2019-05-26T02:52:28.195Z,100094.25
2019-05-26T02:53:04.648Z,100090.88
2019-05-26T02:53:40.108Z,100092.11
2019-05-26T02:54:16.185Z,100093.73
2019-05-26T02:54:52.277Z,100091.20
2019-05-26T02:55:28.070Z,100092.95
2019-05-26T02:56:04.461Z,100095.17
2019-05-26T02:56:40.735Z,100093.66
2019-05-26T02:57:16.250Z,100094.25
2019-05-26T02:57:52.435Z,100097.09
2019-05-26T02:58:28.498Z,100101.13
2019-05-26T02:59:04.549Z,100096.85
2019-05-26T02:59:40.620Z,100093.97
2019-05-26T03:00:18.674Z,100087.76
2019-05-26T03:00:54.177Z,100088.98
2019-05-26T03:01:31.474Z,100097.09
2019-05-26T03:02:07.597Z,100094.05
2019-05-26T03:02:43.605Z,100097.87
2019-05-26T03:03:19.778Z,100089.52
2019-05-26T03:03:56.048Z,100084.56
2019-05-26T03:04:31.518Z,100096.71
2019-05-26T03:05:09.145Z,100096.71
2019-05-26T03:05:46.265Z,100089.69
2019-05-26T03:06:24.302Z,100095.03
2019-05-26T03:07:02.247Z,100100.08
2019-05-26T03:07:42.059Z,100094.33
2019-05-26T03:08:18.042Z,100093.02
2019-05-26T03:08:56.397Z,100088.46
2019-05-26T03:09:33.862Z,100088.46
2019-05-26T03:10:09.817Z,100096.92
2019-05-26T03:10:46.495Z,100082.11
2019-05-26T03:11:24.712Z,100082.11
2019-05-26T03:12:02.530Z,100089.05
2019-05-26T03:12:44.066Z,100088.08
2019-05-26T03:13:20.302Z,100088.08
2019-05-26T03:13:57.766Z,100090.81
2019-05-26T03:14:35.838Z,100088.84
2019-05-26T03:15:13.070Z,100087.16
2019-05-26T03:15:49.052Z,100085.16
2019-05-26T03:16:25.173Z,100088.08
2019-05-26T03:17:03.201Z,100084.63
2019-05-26T03:17:41.280Z,100081.65
2019-05-26T03:18:18.961Z,100080.28
2019-05-26T03:18:56.957Z,100076.91
2019-05-26T03:19:34.761Z,100072.34
2019-05-26T03:20:11.650Z,100072.88
2019-05-26T03:20:47.836Z,100081.72
2019-05-26T03:21:25.243Z,100080.03
2019-05-26T03:22:04.023Z,100086.25
2019-05-26T03:22:45.229Z,100083.02
2019-05-26T03:23:20.074Z,100083.27
2019-05-26T03:23:56.698Z,100085.54
2019-05-26T03:24:34.649Z,100086.45
2019-05-26T03:25:10.688Z,100082.56
2019-05-26T03:25:47.538Z,100089.54
2019-05-26T03:26:25.145Z,100088.59
2019-05-26T03:27:01.003Z,100085.33
2019-05-26T03:27:37.099Z,100090.84
2019-05-26T03:28:13.152Z,100084.41
2019-05-26T03:28:49.016Z,100089.61
2019-05-26T03:29:25.249Z,100085.01
2019-05-26T03:30:01.326Z,100085.01
2019-05-26T03:30:37.096Z,100091.89
2019-05-26T03:31:13.209Z,100091.89
2019-05-26T03:31:49.457Z,100084.94
2019-05-26T03:32:25.705Z,100091.05
2019-05-26T03:33:01.940Z,100091.95
2019-05-26T03:33:38.617Z,100090.27
2019-05-26T03:34:15.197Z,100092.13
2019-05-26T03:34:51.331Z,100086.09
2019-05-26T03:35:27.476Z,100092.41
2019-05-26T03:36:03.062Z,100090.83
2019-05-26T03:36:39.263Z,100085.64
2019-05-26T03:37:15.976Z,100090.83
2019-05-26T03:37:51.549Z,100086.55
2019-05-26T03:38:27.604Z,100092.13
2019-05-26T03:39:03.663Z,100087.22
2019-05-26T03:39:45.277Z,100086.77
2019-05-26T03:40:17.382Z,100086.55
2019-05-26T03:40:54.074Z,100086.30
2019-05-26T03:41:29.540Z,100092.72
2019-05-26T03:42:05.679Z,100084.26
2019-05-26T03:42:41.789Z,100083.48
2019-05-26T03:43:17.367Z,100080.89
2019-05-26T03:43:54.293Z,100085.39
2019-05-26T03:44:30.997Z,100086.16
2019-05-26T03:45:07.451Z,100081.04
2019-05-26T03:46:23.225Z,100084.61
2019-05-26T03:46:58.783Z,100081.34
2019-05-26T03:47:35.548Z,100078.22
2019-05-26T03:48:11.589Z,100078.13
2019-05-26T03:48:47.335Z,100083.56
2019-05-26T03:49:23.477Z,100080.52
2019-05-26T03:49:59.654Z,100080.13
2019-05-26T03:50:35.120Z,100077.59
2019-05-26T03:51:11.260Z,100079.52
2019-05-26T03:51:47.892Z,100077.55
2019-05-26T03:52:23.527Z,100077.55
2019-05-26T03:53:00.347Z,100086.30
2019-05-26T03:53:36.402Z,100082.72
2019-05-26T03:54:12.143Z,100081.66
2019-05-26T03:54:49.136Z,100083.48
2019-05-26T03:55:26.276Z,100080.70
2019-05-26T03:56:01.773Z,100084.11
2019-05-26T03:56:38.058Z,100082.59
2019-05-26T03:57:14.189Z,100073.90
2019-05-26T03:57:50.020Z,100082.22
2019-05-26T03:58:26.454Z,100083.59
2019-05-26T03:59:02.540Z,100077.02
2019-05-26T03:59:38.002Z,100074.10
2019-05-26T04:00:14.953Z,100079.08
2019-05-26T04:00:51.150Z,100077.32
2019-05-26T04:01:27.769Z,100078.69
2019-05-26T04:02:03.854Z,100081.22
2019-05-26T04:02:39.964Z,100082.52
2019-05-26T04:03:15.470Z,100082.52
2019-05-26T04:03:51.649Z,100079.48
2019-05-26T04:04:27.849Z,100074.20
2019-05-26T04:05:03.588Z,100081.83
2019-05-26T04:05:39.638Z,100081.89
2019-05-26T04:06:15.733Z,100082.21
2019-05-26T04:06:51.913Z,100083.97
2019-05-26T04:07:28.045Z,100089.86
2019-05-26T04:08:05.647Z,100091.08
2019-05-26T04:08:41.953Z,100091.47
2019-05-26T04:09:18.585Z,100082.28
2019-05-26T04:10:04.431Z,100091.75
2019-05-26T04:10:31.902Z,100088.48
2019-05-26T04:11:08.176Z,100091.60
2019-05-26T04:11:44.588Z,100091.60
2019-05-26T04:12:20.152Z,100085.04
2019-05-26T04:12:56.246Z,100089.00
2019-05-26T04:13:32.303Z,100086.02
2019-05-26T04:14:07.837Z,100092.38
2019-05-26T04:14:44.340Z,100086.56
2019-05-26T04:15:20.543Z,100087.09
2019-05-26T04:15:56.429Z,100089.09
2019-05-26T04:16:32.791Z,100090.47
2019-05-26T04:17:08.896Z,100090.44
2019-05-26T04:17:44.780Z,100089.52
2019-05-26T04:18:21.013Z,100093.42
2019-05-26T04:18:57.549Z,100091.66
2019-05-26T04:19:33.002Z,100090.97
2019-05-26T04:20:09.370Z,100090.90
2019-05-26T04:20:46.156Z,100088.06
2019-05-26T04:21:23.730Z,100089.54
2019-05-26T04:21:59.763Z,100091.30
2019-05-26T04:22:36.131Z,100087.30
2019-05-26T04:23:12.025Z,100089.69
2019-05-26T04:23:48.446Z,100089.75
2019-05-26T04:24:24.659Z,100091.52
2019-05-26T04:25:00.093Z,100090.53
2019-05-26T04:25:36.110Z,100090.74
2019-05-26T04:26:12.164Z,100087.09
2019-05-26T04:26:47.970Z,100089.59
2019-05-26T04:27:25.485Z,100091.66
2019-05-26T04:28:01.924Z,100097.63
2019-05-26T04:28:37.363Z,100090.14
2019-05-26T04:29:13.422Z,100089.75
2019-05-26T04:29:49.584Z,100088.45
2019-05-26T04:30:25.688Z,100091.80
2019-05-26T04:31:01.727Z,100088.35
2019-05-26T04:31:37.762Z,100092.56
2019-05-26T04:32:13.231Z,100090.42
2019-05-26T04:32:49.463Z,100095.55
2019-05-26T04:33:25.552Z,100089.82
2019-05-26T04:34:00.998Z,100088.91
2019-05-26T04:34:37.045Z,100087.89
2019-05-26T04:35:13.110Z,100094.70
2019-05-26T04:35:48.757Z,100088.34
2019-05-26T04:36:24.835Z,100086.91
2019-05-26T04:37:00.878Z,100089.89
2019-05-26T04:37:36.372Z,100088.90
2019-05-26T04:38:13.134Z,100088.41
2019-05-26T04:38:49.276Z,100094.77
2019-05-26T04:39:24.767Z,100089.56
2019-05-26T04:40:00.787Z,100092.30
2019-05-26T04:40:37.753Z,100089.62
2019-05-26T04:41:13.207Z,100092.20
2019-05-26T04:41:49.691Z,100086.22
2019-05-26T04:42:26.051Z,100094.72
2019-05-26T04:43:01.893Z,100093.69
2019-05-26T04:43:38.273Z,100098.55
2019-05-26T04:44:14.655Z,100090.74
2019-05-26T04:44:50.537Z,100092.39
2019-05-26T04:45:27.516Z,100095.09
2019-05-26T04:46:03.566Z,100092.05
2019-05-26T04:46:39.010Z,100094.08
2019-05-26T04:47:15.078Z,100091.41
2019-05-26T04:47:51.704Z,100093.47
2019-05-26T04:48:27.429Z,100090.56
2019-05-26T04:49:03.894Z,100097.30
2019-05-26T04:49:40.866Z,100093.09
2019-05-26T04:50:16.556Z,100096.84
2019-05-26T04:50:52.953Z,100102.70
2019-05-26T04:51:29.025Z,100099.11
2019-05-26T04:52:04.911Z,100101.41
2019-05-26T04:52:41.960Z,100098.34
2019-05-26T04:53:19.806Z,100100.94
2019-05-26T04:53:55.354Z,100101.25
2019-05-26T04:54:31.754Z,100100.69
2019-05-26T04:55:08.387Z,100097.34
2019-05-26T04:55:43.849Z,100096.89
2019-05-26T04:56:20.283Z,100105.20
2019-05-26T04:56:56.350Z,100098.23
2019-05-26T04:57:31.815Z,100103.19
2019-05-26T04:58:07.949Z,100102.27
2019-05-26T04:58:43.985Z,100104.87
2019-05-26T04:59:19.722Z,100106.05
2019-05-26T04:59:56.832Z,100105.59
2019-05-26T05:00:32.868Z,100100.69
2019-05-26T05:01:09.259Z,100108.34
2019-05-26T05:01:45.666Z,100108.34
2019-05-26T05:02:22.448Z,100106.50
2019-05-26T05:02:58.860Z,100104.10
2019-05-26T05:03:35.464Z,100103.34
2019-05-26T05:04:13.018Z,100109.78
2019-05-26T05:04:49.073Z,100104.11
2019-05-26T05:05:25.739Z,100103.20
2019-05-26T05:06:03.083Z,100101.17
2019-05-26T05:06:38.551Z,100104.08
2019-05-26T05:07:15.113Z,100106.22
2019-05-26T05:07:52.807Z,100108.02
2019-05-26T05:08:29.009Z,100103.58
2019-05-26T05:09:06.757Z,100106.80
2019-05-26T05:09:43.392Z,100104.11
2019-05-26T05:10:19.607Z,100100.20
2019-05-26T05:10:55.677Z,100105.86
2019-05-26T05:11:32.747Z,100109.39
2019-05-26T05:12:08.841Z,100106.70
2019-05-26T05:12:45.842Z,100111.38
2019-05-26T05:13:25.080Z,100109.36
2019-05-26T05:14:00.149Z,100108.24
2019-05-26T05:14:36.259Z,100108.52
2019-05-26T05:15:12.320Z,100111.50
2019-05-26T05:15:48.844Z,100110.28
2019-05-26T05:16:25.565Z,100106.98
2019-05-26T05:17:01.618Z,100107.67
2019-05-26T05:17:37.654Z,100108.33
2019-05-26T05:18:14.319Z,100111.58
2019-05-26T05:18:51.368Z,100109.82
2019-05-26T05:19:27.809Z,100114.03
2019-05-26T05:20:05.638Z,100111.04
2019-05-26T05:20:42.378Z,100112.84
2019-05-26T05:21:18.352Z,100119.58
2019-05-26T05:21:55.118Z,100113.88
2019-05-26T05:22:31.754Z,100113.03
2019-05-26T05:23:07.216Z,100120.73
2019-05-26T05:23:43.289Z,100116.52
2019-05-26T05:24:19.965Z,100120.99
2019-05-26T05:24:56.031Z,100115.67
2019-05-26T05:25:32.995Z,100115.63
2019-05-26T05:26:09.618Z,100119.08
2019-05-26T05:26:45.436Z,100118.97
2019-05-26T05:27:22.453Z,100120.42
2019-05-26T05:27:59.231Z,100121.61
2019-05-26T05:28:35.710Z,100115.75
2019-05-26T05:29:12.346Z,100120.42
2019-05-26T05:29:48.821Z,100123.91
2019-05-26T05:30:25.182Z,100123.13
2019-05-26T05:31:01.789Z,100119.63
2019-05-26T05:31:37.830Z,100125.68
2019-05-26T05:32:13.871Z,100125.41
2019-05-26T05:32:50.611Z,100123.48
2019-05-26T05:33:27.372Z,100120.22
2019-05-26T05:34:02.878Z,100118.67
2019-05-26T05:34:39.555Z,100121.34
2019-05-26T05:35:16.462Z,100118.02
2019-05-26T05:35:52.992Z,100127.38
2019-05-26T05:36:29.124Z,100123.59
2019-05-26T05:37:05.764Z,100125.89
2019-05-26T05:37:41.807Z,100117.64
2019-05-26T05:38:18.816Z,100125.57
2019-05-26T05:38:55.399Z,100122.71
2019-05-26T05:39:31.421Z,100126.73
2019-05-26T05:40:08.759Z,100125.17
2019-05-26T05:40:58.256Z,100121.23
2019-05-26T05:41:23.311Z,100124.97
2019-05-26T05:41:59.380Z,100128.31
2019-05-26T05:42:35.512Z,100128.12
2019-05-26T05:43:11.330Z,100121.85
2019-05-26T05:43:48.394Z,100126.76
2019-05-26T05:44:24.611Z,100129.48
2019-05-26T05:45:00.369Z,100133.62
2019-05-26T05:45:37.741Z,100130.53
2019-05-26T05:46:14.778Z,100132.55
2019-05-26T05:46:51.269Z,100134.02
2019-05-26T05:47:28.680Z,100135.35
2019-05-26T05:48:05.975Z,100132.75
2019-05-26T05:48:41.581Z,100126.39
2019-05-26T05:49:19.503Z,100136.31
2019-05-26T05:49:55.793Z,100133.59
2019-05-26T05:50:32.207Z,100131.25
2019-05-26T05:51:08.529Z,100121.55
2019-05-26T05:51:44.554Z,100130.40
2019-05-26T05:52:20.917Z,100125.41
2019-05-26T05:52:57.554Z,100122.88
2019-05-26T05:53:34.668Z,100123.56
2019-05-26T05:54:10.287Z,100121.17
2019-05-26T05:54:46.782Z,100125.84
2019-05-26T05:55:23.495Z,100125.57
2019-05-26T05:55:59.660Z,100127.76
2019-05-26T05:56:36.700Z,100127.95
2019-05-26T05:57:13.363Z,100126.54
2019-05-26T05:57:49.020Z,100126.73
2019-05-26T05:58:25.805Z,100127.14
2019-05-26T05:59:02.598Z,100125.78
2019-05-26T05:59:38.085Z,100122.71
2019-05-26T06:00:15.127Z,100120.17
2019-05-26T06:00:52.504Z,100128.33
2019-05-26T06:01:29.035Z,100122.33
2019-05-26T06:02:05.402Z,100125.36
2019-05-26T06:02:42.072Z,100125.63
2019-05-26T06:03:18.970Z,100123.06
2019-05-26T06:03:55.595Z,100122.59
2019-05-26T06:04:32.962Z,100122.14
2019-05-26T06:05:09.516Z,100128.00
2019-05-26T06:05:47.108Z,100125.09
2019-05-26T06:06:24.145Z,100121.71
2019-05-26T06:06:59.659Z,100117.76
2019-05-26T06:07:35.805Z,100124.13
2019-05-26T06:08:12.862Z,100121.25
2019-05-26T06:08:49.312Z,100120.30
2019-05-26T06:09:26.362Z,100121.33
2019-05-26T06:10:03.054Z,100113.88
2019-05-26T06:10:39.636Z,100121.53
2019-05-26T06:11:17.267Z,100111.54
2019-05-26T06:11:56.892Z,100115.27
2019-05-26T06:12:30.764Z,100113.84
2019-05-26T06:13:06.825Z,100115.39
2019-05-26T06:13:42.947Z,100116.02
2019-05-26T06:14:18.593Z,100111.78
2019-05-26T06:14:55.463Z,100115.70
2019-05-26T06:15:32.168Z,100120.84
2019-05-26T06:16:08.275Z,100115.74
2019-05-26T06:16:44.331Z,100109.95
2019-05-26T06:17:21.030Z,100108.96
2019-05-26T06:17:58.048Z,100116.29
2019-05-26T06:18:35.070Z,100110.86
2019-05-26T06:19:11.726Z,100113.05
2019-05-26T06:19:47.554Z,100113.62
2019-05-26T06:20:24.241Z,100112.63
2019-05-26T06:21:00.875Z,100121.66
2019-05-26T06:21:36.354Z,100111.84
2019-05-26T06:22:12.522Z,100112.63
2019-05-26T06:22:49.076Z,100111.53
2019-05-26T06:23:24.567Z,100111.02
2019-05-26T06:24:02.782Z,100115.65
2019-05-26T06:24:39.241Z,100115.44
2019-05-26T06:25:15.927Z,100117.12
2019-05-26T06:25:52.412Z,100117.20
2019-05-26T06:26:29.070Z,100115.47
2019-05-26T06:27:04.645Z,100117.88
2019-05-26T06:27:41.099Z,100113.88
2019-05-26T06:28:17.844Z,100113.55
2019-05-26T06:28:53.349Z,100113.62
2019-05-26T06:29:29.465Z,100115.67
2019-05-26T06:30:06.559Z,100114.55
2019-05-26T06:30:42.380Z,100119.55
2019-05-26T06:31:19.192Z,100116.95
2019-05-26T06:31:56.348Z,100118.56
2019-05-26T06:32:33.551Z,100116.52
2019-05-26T06:33:10.216Z,100119.20
2019-05-26T06:33:46.269Z,100109.61
2019-05-26T06:34:21.749Z,100116.97
2019-05-26T06:34:57.916Z,100115.75
2019-05-26T06:35:33.991Z,100114.64
2019-05-26T06:36:09.785Z,100114.27
2019-05-26T06:36:46.748Z,100110.90
2019-05-26T06:37:22.871Z,100116.39
2019-05-26T06:37:58.351Z,100111.27
2019-05-26T06:38:34.413Z,100111.20
2019-05-26T06:39:11.070Z,100108.93
2019-05-26T06:39:47.102Z,100114.59
2019-05-26T06:40:23.805Z,100110.75
2019-05-26T06:40:59.925Z,100117.05
2019-05-26T06:41:35.391Z,100117.98
2019-05-26T06:42:13.178Z,100113.44
2019-05-26T06:42:51.273Z,100114.45
2019-05-26T06:43:27.489Z,100121.45
2019-05-26T06:44:03.567Z,100112.56
2019-05-26T06:44:53.114Z,100111.92
2019-05-26T06:45:18.323Z,100116.13
2019-05-26T06:45:55.705Z,100113.06
2019-05-26T06:46:32.336Z,100116.52
2019-05-26T06:47:08.383Z,100120.27
2019-05-26T06:47:45.392Z,100110.38
2019-05-26T06:48:21.902Z,100114.08
2019-05-26T06:48:58.255Z,100108.99
2019-05-26T06:49:34.917Z,100114.13
2019-05-26T06:50:11.631Z,100110.38
2019-05-26T06:50:48.225Z,100115.77
2019-05-26T06:51:24.749Z,100111.52
2019-05-26T06:52:00.951Z,100114.03
2019-05-26T06:52:36.625Z,100118.69
2019-05-26T06:53:13.072Z,100115.77
2019-05-26T06:53:50.167Z,100109.14
2019-05-26T06:54:26.367Z,100104.77
2019-05-26T06:55:02.742Z,100112.78
2019-05-26T06:55:39.485Z,100109.61
2019-05-26T06:56:14.989Z,100108.39
2019-05-26T06:56:51.861Z,100110.98